KDCU/DCU METAR and TAF weather

Enter ICAO airport designator
Station Type Date Time Source
KDCU METAR 2022/01/19 16:53 UTC NOAA

KDCU 191653Z AUTO 19013G25KT 10SM OVC055 15/09 A3011 RMK AO2 SLP194 T01500089


Station Type Date Time Source
KDCU Decoded METAR 2022/01/19 16:53 UTC NOAA

PRYOR FIELD, AL, United States (KDCU) 34-39N 086-57W 176M
Jan 19, 2022 - 11:53 AM EST / 2022.01.19 1653 UTC
Wind: from the S (190 degrees) at 15 MPH (13 KT) gusting to 29 MPH (25 KT):0
Visibility: 10 mile(s):0
Sky conditions: overcast
Temperature: 59.0 F (15.0 C)
Dew Point: 48.0 F (8.9 C)
Relative Humidity: 66%
Pressure (altimeter): 30.11 in. Hg (1019 hPa)
ob: KDCU 191653Z AUTO 19013G25KT 10SM OVC055 15/09 A3011 RMK AO2 SLP194 T01500089
cycle: 17

Station Type Date Time Source
KDCU TAF UTC NOAA

Error!

Example: see airport list